createdAt,value
2017-06-01T00:00:07.950Z,8.12
2017-06-01T00:02:34.651Z,7.60
2017-06-01T00:05:01.387Z,8.90
2017-06-01T00:07:28.110Z,7.28
2017-06-01T00:09:54.806Z,6.18
2017-06-01T00:12:21.526Z,6.20
2017-06-01T00:14:48.254Z,6.26
2017-06-01T00:17:14.987Z,8.66
2017-06-01T00:19:41.683Z,8.68
2017-06-01T00:22:08.378Z,9.08
2017-06-01T00:24:35.110Z,8.94
2017-06-01T00:27:01.802Z,8.12
2017-06-01T00:29:28.584Z,8.30
2017-06-01T00:31:55.299Z,8.94
2017-06-01T00:34:22.069Z,7.92
2017-06-01T00:36:48.754Z,8.56
2017-06-01T00:39:15.441Z,8.84
2017-06-01T00:41:42.158Z,7.76
2017-06-01T00:44:08.870Z,7.92
2017-06-01T00:46:35.610Z,10.44
2017-06-01T00:49:02.308Z,8.54
2017-06-01T00:51:29.070Z,9.12
2017-06-01T00:53:55.790Z,7.32
2017-06-01T00:56:29.408Z,6.86
2017-06-01T00:58:56.168Z,7.06
2017-06-01T01:01:22.858Z,6.74
2017-06-01T01:03:49.550Z,6.66
2017-06-01T01:06:16.262Z,8.04
2017-06-01T01:08:43.075Z,6.12
2017-06-01T01:11:09.729Z,5.64
2017-06-01T01:13:36.404Z,7.86
2017-06-01T01:16:03.135Z,6.28
2017-06-01T01:18:29.846Z,5.78
2017-06-01T01:20:56.566Z,6.64
2017-06-01T01:23:23.245Z,5.92
2017-06-01T01:25:49.963Z,5.70
2017-06-01T01:28:16.681Z,5.34
2017-06-01T01:30:43.362Z,5.34
2017-06-01T01:33:10.089Z,7.12
2017-06-01T01:35:36.766Z,6.84
2017-06-01T01:38:03.465Z,6.66
2017-06-01T01:40:29.457Z,8.58
2017-06-01T01:42:56.133Z,6.72
2017-06-01T01:45:22.805Z,7.42
2017-06-01T01:47:49.509Z,11.06
2017-06-01T01:50:16.298Z,5.78
2017-06-01T01:52:43.040Z,6.92
2017-06-01T01:55:09.714Z,7.00
2017-06-01T01:57:43.364Z,6.78
2017-06-01T02:00:10.041Z,6.36
2017-06-01T02:02:36.745Z,7.90
2017-06-01T02:05:03.468Z,5.98
2017-06-01T02:07:30.177Z,6.94
2017-06-01T02:09:56.892Z,4.74
2017-06-01T02:12:23.560Z,5.36
2017-06-01T02:14:50.254Z,5.98
2017-06-01T02:17:16.969Z,6.42
2017-06-01T02:19:43.645Z,3.98
2017-06-01T02:22:10.349Z,4.80
2017-06-01T02:24:37.025Z,5.40
2017-06-01T02:27:03.730Z,4.44
2017-06-01T02:29:30.470Z,6.04
2017-06-01T02:31:57.141Z,6.12
2017-06-01T02:34:23.845Z,4.40
2017-06-01T02:36:50.553Z,5.18
2017-06-01T02:39:17.233Z,4.82
2017-06-01T02:41:43.946Z,4.38
2017-06-01T02:44:10.624Z,7.42
2017-06-01T02:46:37.297Z,4.66
2017-06-01T02:49:04.030Z,4.94
2017-06-01T02:51:30.720Z,5.18
2017-06-01T02:53:57.425Z,4.28
2017-06-01T02:56:24.141Z,7.88
2017-06-01T02:58:50.853Z,7.80
2017-06-01T03:01:17.521Z,6.24
2017-06-01T03:03:44.213Z,5.18
2017-06-01T03:06:10.917Z,4.50
2017-06-01T03:08:37.597Z,5.82
2017-06-01T03:11:04.317Z,10.02
2017-06-01T03:13:31.045Z,5.40
2017-06-01T03:15:57.725Z,4.64
2017-06-01T03:18:24.425Z,5.10
2017-06-01T03:20:51.101Z,6.78
2017-06-01T03:23:17.812Z,5.50
2017-06-01T03:25:44.486Z,6.42
2017-06-01T03:28:11.195Z,6.48
2017-06-01T03:30:37.918Z,8.46
2017-06-01T03:33:04.657Z,5.20
2017-06-01T03:35:31.385Z,8.74
2017-06-01T03:37:58.061Z,4.38
2017-06-01T03:40:24.774Z,5.04
2017-06-01T03:42:51.456Z,4.96
2017-06-01T03:45:18.130Z,5.12
2017-06-01T03:47:45.130Z,6.44
2017-06-01T03:50:18.742Z,8.46
2017-06-01T03:52:45.457Z,11.32
2017-06-01T03:55:12.129Z,10.50
2017-06-01T03:57:38.836Z,13.14
2017-06-01T04:00:05.561Z,8.88
2017-06-01T04:02:32.294Z,9.74
2017-06-01T04:04:59.065Z,6.24
2017-06-01T04:07:25.780Z,6.48
2017-06-01T04:09:52.458Z,7.08
2017-06-01T04:12:19.170Z,8.74
2017-06-01T04:14:45.862Z,6.46
2017-06-01T04:17:12.580Z,13.96
2017-06-01T04:19:39.249Z,7.10
2017-06-01T04:22:05.953Z,12.94
2017-06-01T04:24:32.689Z,12.24
2017-06-01T04:26:59.404Z,10.72
2017-06-01T04:29:26.113Z,8.46
2017-06-01T04:31:59.988Z,9.84
2017-06-01T04:34:26.717Z,11.74
2017-06-01T04:36:53.442Z,7.94
2017-06-01T04:39:20.121Z,6.12
2017-06-01T04:41:46.802Z,12.72
2017-06-01T04:44:13.509Z,8.70
2017-06-01T04:46:40.219Z,12.14
2017-06-01T04:49:06.924Z,5.04
2017-06-01T04:51:33.600Z,10.52
2017-06-01T04:54:00.336Z,6.70
2017-06-01T04:56:27.017Z,10.02
2017-06-01T04:58:53.725Z,8.46
2017-06-01T05:01:20.421Z,5.04
2017-06-01T05:03:54.060Z,8.58
2017-06-01T05:06:20.801Z,13.80
2017-06-01T05:08:47.479Z,9.94
2017-06-01T05:11:14.210Z,7.04
2017-06-01T05:13:40.906Z,7.30
2017-06-01T05:16:07.592Z,9.48
2017-06-01T05:18:34.316Z,11.30
2017-06-01T05:21:01.024Z,11.54
2017-06-01T05:23:27.741Z,10.74
2017-06-01T05:25:54.413Z,10.12
2017-06-01T05:28:21.141Z,5.12
2017-06-01T05:30:47.821Z,8.84
2017-06-01T05:33:14.506Z,14.56
2017-06-01T05:35:41.265Z,10.52
2017-06-01T05:38:07.965Z,11.20
2017-06-01T05:40:34.692Z,10.54
2017-06-01T05:43:01.457Z,7.58
2017-06-01T05:45:28.181Z,9.26
2017-06-01T05:47:54.906Z,8.16
2017-06-01T05:50:21.668Z,9.50
2017-06-01T05:52:48.350Z,7.12
2017-06-01T05:55:15.037Z,6.52
2017-06-01T05:57:41.763Z,8.38
2017-06-01T06:00:08.488Z,9.14
2017-06-01T06:02:35.194Z,9.22
2017-06-01T06:05:01.926Z,8.30
2017-06-01T06:07:28.666Z,8.66
2017-06-01T06:09:55.368Z,5.30
2017-06-01T06:12:22.088Z,4.86
2017-06-01T06:14:48.778Z,10.82
2017-06-01T06:17:15.505Z,7.94
2017-06-01T06:19:42.224Z,10.00
2017-06-01T06:22:08.901Z,7.62
2017-06-01T06:24:35.628Z,8.16
2017-06-01T06:27:02.373Z,6.56
2017-06-01T06:29:29.141Z,7.18
2017-06-01T06:31:55.829Z,7.48
2017-06-01T06:34:22.553Z,5.92
2017-06-01T06:36:49.283Z,11.28
2017-06-01T06:39:15.982Z,8.84
2017-06-01T06:41:42.717Z,7.14
2017-06-01T06:44:09.443Z,8.76
2017-06-01T06:46:36.161Z,11.94
2017-06-01T06:49:02.949Z,6.02
2017-06-01T06:51:29.721Z,9.12
2017-06-01T06:53:56.453Z,9.06
2017-06-01T06:56:23.133Z,9.86
2017-06-01T06:58:49.845Z,11.68
2017-06-01T07:01:16.537Z,12.44
2017-06-01T07:03:43.255Z,8.88
2017-06-01T07:06:09.950Z,7.82
2017-06-01T07:08:36.717Z,8.88
2017-06-01T07:11:03.409Z,11.88
2017-06-01T07:13:30.142Z,12.56
2017-06-01T07:15:56.829Z,9.96
2017-06-01T07:18:23.553Z,8.88
2017-06-01T07:20:50.285Z,9.38
2017-06-01T07:23:16.983Z,12.18
2017-06-01T07:25:43.678Z,8.48
2017-06-01T07:28:10.392Z,9.82
2017-06-01T07:30:37.077Z,10.64
2017-06-01T07:33:03.829Z,6.78
2017-06-01T07:35:29.821Z,12.68
2017-06-01T07:37:56.551Z,9.48
2017-06-01T07:40:23.237Z,13.28
2017-06-01T07:42:49.917Z,7.56
2017-06-01T07:45:16.633Z,8.64
2017-06-01T07:47:43.317Z,9.32
2017-06-01T07:50:10.041Z,13.33
2017-06-01T07:52:36.725Z,8.32
2017-06-01T07:55:03.462Z,7.72
2017-06-01T07:57:30.173Z,7.16
2017-06-01T07:59:56.892Z,11.44
2017-06-01T08:02:23.582Z,7.68
2017-06-01T08:04:50.384Z,8.36
2017-06-01T08:07:17.094Z,7.26
2017-06-01T08:09:43.818Z,5.74
2017-06-01T08:12:10.501Z,7.72
2017-06-01T08:14:37.198Z,8.28
2017-06-01T08:17:03.916Z,10.08
2017-06-01T08:19:29.949Z,7.78
2017-06-01T08:21:56.646Z,10.88
2017-06-01T08:24:23.373Z,7.36
2017-06-01T08:26:50.091Z,10.68
2017-06-01T08:29:16.786Z,8.34
2017-06-01T08:31:43.505Z,6.26
2017-06-01T08:34:10.270Z,11.80
2017-06-01T08:36:36.950Z,6.32
2017-06-01T08:39:03.690Z,6.84
2017-06-01T08:41:30.379Z,5.36
2017-06-01T08:43:57.053Z,6.12
2017-06-01T08:46:23.773Z,5.02
2017-06-01T08:48:50.456Z,5.76
2017-06-01T08:51:17.149Z,5.20
2017-06-01T08:53:43.866Z,6.28
2017-06-01T08:56:10.556Z,3.60
2017-06-01T08:58:37.294Z,5.26
2017-06-01T09:01:04.026Z,4.46
2017-06-01T09:03:30.733Z,9.66
2017-06-01T09:05:57.456Z,3.38
2017-06-01T09:08:24.144Z,7.52
2017-06-01T09:10:50.834Z,3.48
2017-06-01T09:13:17.589Z,4.72
2017-06-01T09:15:44.268Z,8.32
2017-06-01T09:18:10.949Z,4.62
2017-06-01T09:20:37.705Z,5.34
2017-06-01T09:23:04.453Z,6.36
2017-06-01T09:25:31.156Z,6.10
2017-06-01T09:27:57.888Z,4.50
2017-06-01T09:30:24.578Z,9.00
2017-06-01T09:32:51.293Z,13.48
2017-06-01T09:35:18.001Z,4.32
2017-06-01T09:37:44.730Z,10.50
2017-06-01T09:40:11.409Z,7.92
2017-06-01T09:42:38.092Z,5.02
2017-06-01T09:45:04.808Z,6.96
2017-06-01T09:47:31.502Z,6.58
2017-06-01T09:49:58.232Z,5.82
2017-06-01T09:52:24.909Z,6.06
2017-06-01T09:54:51.636Z,7.96
2017-06-01T09:57:18.342Z,5.84
2017-06-01T09:59:45.025Z,5.56
2017-06-01T10:02:11.749Z,8.68
2017-06-01T10:04:38.465Z,3.38
2017-06-01T10:07:05.144Z,3.24
2017-06-01T10:09:31.881Z,7.90
2017-06-01T10:11:58.616Z,2.82
2017-06-01T10:14:25.305Z,3.82
2017-06-01T10:16:52.034Z,6.98
2017-06-01T10:19:18.725Z,6.00
2017-06-01T10:21:45.426Z,4.16
2017-06-01T10:24:12.149Z,9.34
2017-06-01T10:26:38.886Z,2.68
2017-06-01T10:29:05.571Z,4.96
2017-06-01T10:31:32.277Z,4.14
2017-06-01T10:33:58.996Z,6.28
2017-06-01T10:36:25.716Z,4.56
2017-06-01T10:38:52.444Z,5.62
2017-06-01T10:41:19.153Z,3.24
2017-06-01T10:43:45.840Z,2.86
2017-06-01T10:46:12.560Z,2.30
2017-06-01T10:48:39.261Z,4.04
2017-06-01T10:51:05.965Z,5.10
2017-06-01T10:53:32.742Z,3.36
2017-06-01T10:55:59.445Z,2.78
2017-06-01T10:58:26.132Z,6.08
2017-06-01T11:00:53.269Z,6.00
2017-06-01T11:03:19.958Z,3.74
2017-06-01T11:05:46.673Z,4.56
2017-06-01T11:08:13.354Z,3.30
2017-06-01T11:10:40.083Z,6.58
2017-06-01T11:13:06.769Z,5.52
2017-06-01T11:15:33.456Z,6.02
2017-06-01T11:18:00.205Z,4.18
2017-06-01T11:20:26.888Z,3.16
2017-06-01T11:22:53.605Z,2.18
2017-06-01T11:25:20.296Z,2.76
2017-06-01T11:27:46.981Z,5.18
2017-06-01T11:30:13.702Z,1.90
2017-06-01T11:32:40.461Z,3.84
2017-06-01T11:35:07.250Z,2.40
2017-06-01T11:37:33.993Z,3.86
2017-06-01T11:40:01.810Z,1.84
2017-06-01T11:42:28.513Z,1.92
2017-06-01T11:44:55.201Z,1.78
2017-06-01T11:47:21.918Z,2.84
2017-06-01T11:49:48.630Z,2.58
2017-06-01T11:52:15.564Z,3.20
2017-06-01T11:54:42.289Z,2.68
2017-06-01T11:57:08.969Z,3.92
2017-06-01T11:59:35.709Z,1.68
2017-06-01T12:02:02.409Z,2.74
2017-06-01T12:04:29.140Z,2.58
2017-06-01T12:06:55.857Z,2.62
2017-06-01T12:09:22.537Z,5.64
2017-06-01T12:11:49.264Z,4.38
2017-06-01T12:14:15.949Z,2.12
2017-06-01T12:16:42.620Z,5.18
2017-06-01T12:19:09.336Z,3.86
2017-06-01T12:21:36.018Z,2.74
2017-06-01T12:24:02.749Z,3.90
2017-06-01T12:26:29.437Z,6.06
2017-06-01T12:28:56.216Z,2.76
2017-06-01T12:31:22.900Z,2.18
2017-06-01T12:33:49.685Z,2.86
2017-06-01T12:36:16.405Z,2.96
2017-06-01T12:38:43.145Z,2.08
2017-06-01T12:41:09.896Z,4.30
2017-06-01T12:43:36.589Z,3.70
2017-06-01T12:46:03.274Z,2.50
2017-06-01T12:48:30.021Z,2.96
2017-06-01T12:50:56.706Z,4.70
2017-06-01T12:53:23.433Z,4.48
2017-06-01T12:55:50.212Z,4.62
2017-06-01T12:58:16.941Z,4.60
2017-06-01T13:00:43.625Z,2.78
2017-06-01T13:03:10.313Z,3.94
2017-06-01T13:05:37.073Z,2.92
2017-06-01T13:08:03.779Z,3.58
2017-06-01T13:10:30.605Z,2.84
2017-06-01T13:12:57.330Z,2.88
2017-06-01T13:15:24.229Z,4.02
2017-06-01T13:17:50.948Z,3.10
2017-06-01T13:20:17.650Z,8.74
2017-06-01T13:22:44.393Z,3.44
2017-06-01T13:25:11.086Z,3.94
2017-06-01T13:27:37.772Z,3.18
2017-06-01T13:30:04.494Z,3.68
2017-06-01T13:32:31.210Z,3.42
2017-06-01T13:34:58.002Z,3.42
2017-06-01T13:37:24.724Z,2.40
2017-06-01T13:39:51.433Z,3.26
2017-06-01T13:42:18.157Z,3.44
2017-06-01T13:44:44.843Z,4.04
2017-06-01T13:47:11.525Z,3.55
2017-06-01T13:49:38.297Z,2.62
2017-06-01T13:52:04.996Z,3.64
2017-06-01T13:54:31.734Z,3.06
2017-06-01T13:56:58.452Z,3.52
2017-06-01T13:59:25.206Z,3.90
2017-06-01T14:01:51.896Z,4.34
2017-06-01T14:04:18.582Z,2.70
2017-06-01T14:06:45.306Z,4.32
2017-06-01T14:09:11.994Z,2.48
2017-06-01T14:11:38.713Z,3.64
2017-06-01T14:14:05.443Z,4.08
2017-06-01T14:16:32.194Z,3.00
2017-06-01T14:18:58.941Z,3.98
2017-06-01T14:21:25.625Z,4.40
2017-06-01T14:23:52.355Z,3.62
2017-06-01T14:26:19.050Z,3.32
2017-06-01T14:28:45.742Z,5.88
2017-06-01T14:31:12.502Z,3.24
2017-06-01T14:33:39.185Z,3.18
2017-06-01T14:36:05.901Z,3.14
2017-06-01T14:38:32.657Z,3.20
2017-06-01T14:40:59.348Z,5.46
2017-06-01T14:43:26.415Z,4.40
2017-06-01T14:45:53.137Z,3.24
2017-06-01T14:48:19.892Z,3.44
2017-06-01T14:50:46.579Z,3.14
2017-06-01T14:53:13.265Z,3.10
2017-06-01T14:55:39.986Z,4.36
2017-06-01T14:58:06.680Z,3.08
2017-06-01T15:00:33.462Z,3.64
2017-06-01T15:03:00.165Z,2.82
2017-06-01T15:05:26.901Z,3.34
2017-06-01T15:07:53.626Z,5.52
2017-06-01T15:10:20.358Z,3.70
2017-06-01T15:12:47.033Z,4.32
2017-06-01T15:15:14.422Z,3.56
2017-06-01T15:17:41.145Z,3.30
2017-06-01T15:20:07.861Z,3.34
2017-06-01T15:22:34.596Z,2.60
2017-06-01T15:25:01.399Z,3.48
2017-06-01T15:27:28.129Z,2.96
2017-06-01T15:29:54.845Z,3.32
2017-06-01T15:32:21.524Z,3.48
2017-06-01T15:34:48.246Z,3.44
2017-06-01T15:37:14.957Z,3.28
2017-06-01T15:39:41.637Z,4.82
2017-06-01T15:42:08.361Z,2.88
2017-06-01T15:44:35.130Z,3.36
2017-06-01T15:47:01.861Z,2.12
2017-06-01T15:49:28.580Z,3.12
2017-06-01T15:51:55.317Z,2.92
2017-06-01T15:54:22.033Z,2.32
2017-06-01T15:56:48.756Z,2.28
2017-06-01T15:59:15.436Z,3.20
2017-06-01T16:01:42.169Z,3.62
2017-06-01T16:04:08.889Z,2.78
2017-06-01T16:06:35.609Z,2.84
2017-06-01T16:09:02.333Z,2.98
2017-06-01T16:11:29.017Z,4.28
2017-06-01T16:13:55.743Z,2.86
2017-06-01T16:16:22.455Z,3.64
2017-06-01T16:18:49.208Z,2.78
2017-06-01T16:21:15.901Z,3.08
2017-06-01T16:23:42.590Z,3.12
2017-06-01T16:26:09.309Z,5.16
2017-06-01T16:28:36.004Z,4.68
2017-06-01T16:31:02.722Z,2.90
2017-06-01T16:33:29.457Z,2.40
2017-06-01T16:35:56.145Z,3.20
2017-06-01T16:38:22.881Z,4.52
2017-06-01T16:40:49.637Z,3.22
2017-06-01T16:43:16.330Z,4.06
2017-06-01T16:45:43.060Z,2.60
2017-06-01T16:48:09.744Z,3.30
2017-06-01T16:50:36.441Z,2.24
2017-06-01T16:53:03.161Z,3.38
2017-06-01T16:55:29.844Z,4.46
2017-06-01T16:57:56.594Z,3.40
2017-06-01T17:00:23.286Z,4.60
2017-06-01T17:02:50.098Z,2.08
2017-06-01T17:05:16.813Z,2.48
2017-06-01T17:07:43.501Z,3.30
2017-06-01T17:10:10.247Z,3.80
2017-06-01T17:12:36.949Z,2.96
2017-06-01T17:15:03.638Z,2.04
2017-06-01T17:17:30.384Z,3.14
2017-06-01T17:19:57.177Z,4.84
2017-06-01T17:22:23.945Z,2.54
2017-06-01T17:24:50.624Z,2.36
2017-06-01T17:27:17.315Z,2.02
2017-06-01T17:29:44.039Z,2.00
2017-06-01T17:32:10.721Z,6.78
2017-06-01T17:34:37.453Z,3.52
2017-06-01T17:37:04.164Z,4.24
2017-06-01T17:39:30.921Z,3.26
2017-06-01T17:41:57.612Z,5.32
2017-06-01T17:44:24.333Z,3.36
2017-06-01T17:46:51.061Z,2.80
2017-06-01T17:49:18.788Z,3.82
2017-06-01T17:51:45.849Z,2.44
2017-06-01T17:54:12.550Z,3.72
2017-06-01T17:56:39.248Z,2.48
2017-06-01T17:59:06.598Z,1.76
2017-06-01T18:01:33.349Z,2.28
2017-06-01T18:04:03.457Z,2.54
2017-06-01T18:06:34.621Z,3.34
2017-06-01T18:09:01.365Z,2.48
2017-06-01T18:11:30.015Z,2.40
2017-06-01T18:13:56.809Z,3.66
2017-06-01T18:16:23.537Z,1.92
2017-06-01T18:18:50.266Z,3.78
2017-06-01T18:21:16.981Z,4.16
2017-06-01T18:23:43.705Z,1.78
2017-06-01T18:26:10.499Z,3.06
2017-06-01T18:28:37.317Z,3.60
2017-06-01T18:31:04.018Z,3.70
2017-06-01T18:33:30.757Z,2.60
2017-06-01T18:35:57.459Z,1.90
2017-06-01T18:38:24.213Z,3.02
2017-06-01T18:40:50.946Z,3.24
2017-06-01T18:43:17.665Z,1.40
2017-06-01T18:45:44.345Z,2.34
2017-06-01T18:48:11.101Z,2.70
2017-06-01T18:50:38.130Z,1.82
2017-06-01T18:53:04.859Z,2.16
2017-06-01T18:55:31.583Z,2.20
2017-06-01T18:57:58.289Z,2.48
2017-06-01T19:00:25.000Z,2.16
2017-06-01T19:02:51.693Z,2.62
2017-06-01T19:05:18.409Z,5.10
2017-06-01T19:07:45.097Z,1.84
2017-06-01T19:10:11.845Z,4.50
2017-06-01T19:12:38.548Z,2.88
2017-06-01T19:15:05.269Z,5.36
2017-06-01T19:17:31.988Z,3.22
2017-06-01T19:19:58.717Z,4.00
2017-06-01T19:22:25.409Z,2.78
2017-06-01T19:24:52.132Z,2.56
2017-06-01T19:27:18.942Z,3.66
2017-06-01T19:29:45.638Z,2.72
2017-06-01T19:32:12.324Z,3.70
2017-06-01T19:34:39.068Z,5.76
2017-06-01T19:37:05.838Z,6.58
2017-06-01T19:39:32.657Z,4.44
2017-06-01T19:41:59.350Z,5.74
2017-06-01T19:44:26.082Z,3.60
2017-06-01T19:46:52.765Z,2.38
2017-06-01T19:49:19.440Z,5.80
2017-06-01T19:51:46.165Z,3.64
2017-06-01T19:54:12.840Z,4.36
2017-06-01T19:56:40.637Z,4.88
2017-06-01T19:59:07.357Z,5.06
2017-06-01T20:01:34.055Z,5.14
2017-06-01T20:04:00.769Z,2.92
2017-06-01T20:06:27.445Z,3.22
2017-06-01T20:08:54.152Z,3.86
2017-06-01T20:11:20.842Z,3.96
2017-06-01T20:13:47.568Z,3.88
2017-06-01T20:16:14.254Z,5.26
2017-06-01T20:18:40.973Z,3.86
2017-06-01T20:21:07.702Z,3.32
2017-06-01T20:23:34.390Z,3.20
2017-06-01T20:26:01.126Z,5.32
2017-06-01T20:28:27.805Z,6.94
2017-06-01T20:30:54.489Z,2.62
2017-06-01T20:33:21.228Z,2.84
2017-06-01T20:35:47.913Z,7.08
2017-06-01T20:38:14.625Z,6.64
2017-06-01T20:40:41.349Z,4.42
2017-06-01T20:43:08.073Z,4.34
2017-06-01T20:45:34.779Z,3.48
2017-06-01T20:48:01.515Z,6.44
2017-06-01T20:50:28.199Z,3.66
2017-06-01T20:52:54.881Z,4.46
2017-06-01T20:55:21.597Z,5.48
2017-06-01T20:57:48.281Z,4.60
2017-06-01T21:00:15.056Z,4.40
2017-06-01T21:02:41.732Z,6.56
2017-06-01T21:05:08.473Z,6.44
2017-06-01T21:07:35.161Z,4.42
2017-06-01T21:10:01.845Z,4.84
2017-06-01T21:12:28.562Z,4.38
2017-06-01T21:14:55.277Z,3.18
2017-06-01T21:17:21.960Z,4.98
2017-06-01T21:19:48.684Z,4.18
2017-06-01T21:22:15.364Z,4.70
2017-06-01T21:24:42.036Z,4.90
2017-06-01T21:27:08.788Z,7.80
2017-06-01T21:29:35.469Z,4.42
2017-06-01T21:32:02.205Z,5.10
2017-06-01T21:34:28.900Z,3.80
2017-06-01T21:36:55.625Z,3.84
2017-06-01T21:39:22.350Z,5.64
2017-06-01T21:41:49.096Z,4.46
2017-06-01T21:44:15.789Z,4.74
2017-06-01T21:46:42.474Z,5.28
2017-06-01T21:49:09.191Z,5.14
2017-06-01T21:51:35.890Z,2.86
2017-06-01T21:54:02.578Z,4.20
2017-06-01T21:56:29.345Z,4.30
2017-06-01T21:58:56.070Z,3.70
2017-06-01T22:01:22.793Z,4.14
2017-06-01T22:03:49.474Z,4.78
2017-06-01T22:06:16.186Z,3.90
2017-06-01T22:08:42.979Z,3.44
2017-06-01T22:11:09.669Z,4.92
2017-06-01T22:13:36.386Z,3.18
2017-06-01T22:16:03.069Z,4.30
2017-06-01T22:18:29.785Z,6.60
2017-06-01T22:20:56.499Z,3.22
2017-06-01T22:23:23.188Z,3.72
2017-06-01T22:25:49.948Z,5.42
2017-06-01T22:28:16.624Z,3.58
2017-06-01T22:30:43.352Z,4.18
2017-06-01T22:33:10.034Z,5.00
2017-06-01T22:35:36.729Z,3.16
2017-06-01T22:38:03.515Z,4.50
2017-06-01T22:40:30.226Z,6.06
2017-06-01T22:42:56.929Z,4.12
2017-06-01T22:45:23.645Z,4.02
2017-06-01T22:47:50.326Z,4.22
2017-06-01T22:50:17.041Z,3.64
2017-06-01T22:52:43.753Z,4.60
2017-06-01T22:55:10.446Z,5.10
2017-06-01T22:57:37.180Z,4.40
2017-06-01T23:00:03.862Z,6.04
2017-06-01T23:02:30.555Z,5.82
2017-06-01T23:04:57.277Z,3.40
2017-06-01T23:07:23.963Z,3.98
2017-06-01T23:09:50.689Z,3.72
2017-06-01T23:12:17.382Z,3.82
2017-06-01T23:14:44.104Z,4.42
2017-06-01T23:17:10.829Z,4.70
2017-06-01T23:19:37.589Z,5.46
2017-06-01T23:22:04.285Z,5.22
2017-06-01T23:24:31.037Z,4.02
2017-06-01T23:27:04.902Z,5.72
2017-06-01T23:29:31.637Z,6.28
2017-06-01T23:31:58.321Z,4.16
2017-06-01T23:34:24.992Z,5.40
2017-06-01T23:36:51.713Z,9.32
2017-06-01T23:39:18.429Z,3.80
2017-06-01T23:41:45.109Z,5.42
2017-06-01T23:44:11.821Z,4.44
2017-06-01T23:46:38.493Z,3.32
2017-06-01T23:49:05.231Z,3.56
2017-06-01T23:51:31.933Z,5.14
2017-06-01T23:53:58.657Z,5.12
2017-06-01T23:56:25.346Z,2.64
2017-06-01T23:58:52.032Z,3.32
